Winterport, Maine
Current Conditions -  °F | °C
As of 11:53 PM on Saturday 22 Nov 2014 (Local Time) from KBGR Reporting Station
Overcast Overcast  
Wind Chill: 29°   Ceiling: 3700
Heat Index: 35°   Visibility: 10mi
Dew Point: 13°   Wind: 7mph
Humidity: 40%   Direction: 210°SSW
Pressure: 29.93"   Gusts: NA
Location:  44.65°N, 68.86°W
Report Text: KBGR 230453Z 21006KT 10SM OVC037 02/M11 A2993 RMK AO2 SLP136 T00171106 400221106
Loading
Personal Weather Stations






























Interactive Weather Map New forecast layout! Learn more

10-Day Weather Forecast

Advertisements
Track Severe Weather on mobile